Crane, TX

4:16 PM CST on December 27, 2014 (GMT -0600)
Odessa-Schlemeyer | Change Station
CLOSE
Current Station
Airport
Location: Odessa,
Elevation: 2999 ft
Nearby Weather Stations

Elev 2999 ft 31.92 °N, 102.39 °W | Updated 14 minutes ago

Overcast
Overcast
35 °F
Feels Like 26 °F
N
14
Wind Variable Wind from NNE

Today
High -- | Low -- °F
--% Chance of Precip.
Yesterday
High -- | Low -- °F
Precip. -- in
7:47 AM 5:54 PM
Waxing Crescent, 40% visible
Pressure 30.24 in
Visibility 10.0 miles
Clouds Scattered Clouds 1300 ft
Overcast 6500 ft
Windchill 26 °F
Dew Point 29 °F
Humidity 78%
Rainfall 0.02 in
Snow Depth Not available.
UV 0 out of 12
Pollen 6.30 out of 12
Air Quality Not available.
Flu Activity Not available.
SPECI KODO 272202Z AUTO 02012KT 10SM SCT013 OVC065 02/M02 A3024 RMK AO2 T00171017

More Conditions Fewer Conditions

Pressure 30.24 in
Visibility 10.0 miles
Clouds Scattered Clouds 1300 ft
Overcast 6500 ft
Windchill 26 °F
Dew Point 29 °F
Humidity 78%
Rainfall 0.02 in
Snow Depth Not available.
UV 0 out of 12
Pollen 6.30 out of 12
Air Quality Not available.
Flu Activity Not available.
SPECI KODO 272202Z AUTO 02012KT 10SM SCT013 OVC065 02/M02 A3024 RMK AO2 T00171017

More Conditions Fewer Conditions

10-Day Weather Forecast

Almanac

Astronomy

Dec. 27, 2014 Rise Set
Actual Time
Civil Twilight
Nautical Twilight
Astronomical Twilight
Moon
Length of Visible Light
Length of Day
Tomorrow will be .
, % of the Moon is Illuminated

Today's Extremes

State Highs State Lows

Community

WunderPhotos

Upload Photos

1,781,090 photos uploaded!

WunderBlogs® & News

Nearby

Air Quality

  Air Quality AQ Index Pollutant
Not available.

Snow Depth

Station Depth Elevation

Earthquake Activity

City Distance Mag. Time & Date
Minimum magnitude displayed is 2.5.

Coastal Water Temperatures

Place Temperature

Nearby Weather Stations